Airfield :
LOGIN :

Register | Disclaimer

   EN    FR    IT 

 










Legend :    VFR   Marginal VFR   IFR   Intensive IFR   Very Intensive IFR
Visi :
Ceiling :
>= 8 km
>= 3000ft
5 to 8 km
1000 to 3000 ft
1500m to 5 km
500 to 1000 ft
800 to 1500m
200 to 500 ft
< 800m
< 200 ft
Symbols :   Thunderstorms  Fog  Heavy snow  Heavy precipitations  Wind > 20 kt
SIGMETs :     Misc.  Thunderstorms  Icing  Turbulence  Mountain Waves  Volcanic Ashes






- Airport Elevation : 93 ft
- IATA code : XRY


LEJR - Jerez

CURRENT METAR :
  • 020830Z 14003KT 060V200 7000 SCT060 24/21 Q1017

EXPIRED METARs :
  • 020800Z 14004KT 100V180 5000 BR BKN004 21/21 Q1017
  • 020730Z 17003KT 140V210 1500 BR BKN002 20/20 Q1017
  • 020700Z 18004KT 140V210 0800 R20/1000N FG VV002 20/20 Q1016
  • 020630Z 16004KT 120V200 0300 R20/0650N FG VV001 19/19 Q1016
  • 020600Z 17004KT 130V210 0300 R20/0550N FG VV001 19/19 Q1016

TAF TAF LEJR
Valid from the 02 at 06:00 until the 03 at 06:00 UTC


020500Z 0206/0306 18006KT 3000 BR BKN003 TX35/0214Z TN18/0305Z
PROB40
TEMPO 0206/0208 0600 FG VV001
BECMG 0207/0210 CAVOK
BECMG 0210/0213 28013KT
PROB30
TEMPO 0215/0219 28015G25KT



MET'MAP, your aeronautical weather chart ! - Copyright ORBIFLY December 2007 - Disclaimer

ORBIFLY MET'MAP TEAM :

Programming & Development : Alexandra Zaïnal
Concept & original design : Baudouin d'Aumeries
Assistance for programming : Marc-Olivier Méhu
Technical & hardware support : Manuel Goepfert

Contact : metmap@orbifly.com




SOURCES & CREDITS :

   NOAA